Time;durP1;ratioP1;P1;durP2;ratioP2;P2;SDS_P1;SDS_P2;PMS_P1;PMS_P2;Temp;Humidity;BMP_temperature;BMP_pressure;BME280_temperature;BME280_humidity;BME280_pressure;Samples;Min_cycle;Max_cycle;Signal;HPM_P1;HPM_P2
2021/12/15 00:01:34;;;;;;;76.63;30.90;;;7.50;99.90;;;;;;5015195;28;20046;-80
2021/12/15 00:04:02;;;;;;;68.00;29.15;;;7.50;99.90;;;;;;5001182;28;20045;-79
2021/12/15 00:06:30;;;;;;;70.57;28.75;;;7.40;99.90;;;;;;4979181;28;20098;-79
2021/12/15 00:08:58;;;;;;;56.05;25.42;;;7.40;99.90;;;;;;4978929;28;20046;-81
2021/12/15 00:11:36;;;;;;;52.08;25.70;;;7.40;99.90;;;;;;4979519;28;20585;-81
2021/12/15 00:14:11;;;;;;;47.20;23.63;;;7.40;99.90;;;;;;4985653;28;20080;-82
2021/12/15 00:16:39;;;;;;;57.25;21.65;;;7.30;99.90;;;;;;4978814;28;20106;-81
2021/12/15 00:19:07;;;;;;;68.05;21.60;;;7.30;99.90;;;;;;4992334;28;20528;-83
2021/12/15 00:21:35;;;;;;;46.15;20.55;;;7.30;99.90;;;;;;5001839;28;20058;-80
2021/12/15 00:24:03;;;;;;;58.80;19.25;;;7.20;99.90;;;;;;4959526;28;20589;-80
2021/12/15 00:26:30;;;;;;;35.95;18.73;;;7.20;99.90;;;;;;4960067;28;20117;-80
2021/12/15 00:28:57;;;;;;;37.35;19.20;;;7.20;99.90;;;;;;4983299;28;20046;-83
2021/12/15 00:31:25;;;;;;;43.15;19.77;;;7.20;99.90;;;;;;4989836;28;20049;-81
2021/12/15 00:33:56;;;;;;;35.78;18.67;;;7.20;99.90;;;;;;5012762;28;20049;-81
2021/12/15 00:36:23;;;;;;;35.28;19.38;;;7.10;99.90;;;;;;4989315;28;20046;-82
2021/12/15 00:38:51;;;;;;;33.53;17.80;;;7.20;99.90;;;;;;5014006;28;20530;-81
2021/12/15 00:41:19;;;;;;;30.80;17.77;;;7.20;99.90;;;;;;5006864;28;20049;-82
2021/12/15 00:43:48;;;;;;;32.22;18.05;;;7.20;99.90;;;;;;5013882;28;20058;-82
2021/12/15 00:46:15;;;;;;;30.20;17.65;;;7.10;99.90;;;;;;5014139;28;20058;-81
2021/12/15 00:48:42;;;;;;;32.45;16.88;;;7.10;99.90;;;;;;5012160;28;20061;-81
2021/12/15 00:51:09;;;;;;;27.95;16.42;;;7.10;99.90;;;;;;5003183;28;20053;-82
2021/12/15 00:53:36;;;;;;;33.03;16.40;;;7.10;99.90;;;;;;4982795;28;20073;-79
2021/12/15 00:56:04;;;;;;;29.48;16.13;;;7.20;99.90;;;;;;4971204;28;20077;-81
2021/12/15 00:58:31;;;;;;;29.65;16.35;;;7.20;99.90;;;;;;4983067;28;20046;-81
2021/12/15 01:01:01;;;;;;;28.13;16.15;;;7.20;99.90;;;;;;4974453;28;20746;-81
2021/12/15 01:03:30;;;;;;;27.63;16.65;;;7.20;99.90;;;;;;5005237;28;20063;-80
2021/12/15 01:06:09;;;;;;;28.27;16.30;;;7.20;99.90;;;;;;4975345;28;20506;-82
2021/12/15 01:08:46;;;;;;;26.20;15.75;;;7.20;99.90;;;;;;4994068;28;20046;-82
2021/12/15 01:11:44;;;;;;;27.77;15.75;;;7.20;99.90;;;;;;4991252;28;20088;-80
2021/12/15 01:19:52;;;;;;;25.70;14.70;;;7.20;99.90;;;;;;4995094;28;19921;-81
2021/12/15 01:22:24;;;;;;;26.17;15.20;;;7.30;99.90;;;;;;4977000;28;20050;-83
2021/12/15 01:24:55;;;;;;;26.77;14.77;;;7.30;99.90;;;;;;4981625;28;20058;-82
2021/12/15 01:27:22;;;;;;;24.00;14.57;;;7.30;99.90;;;;;;4978233;28;20058;-81
2021/12/15 01:29:49;;;;;;;28.13;16.98;;;7.30;99.90;;;;;;4993695;28;20042;-81
2021/12/15 01:32:17;;;;;;;28.52;15.48;;;7.30;99.90;;;;;;4976335;28;20081;-81
2021/12/15 01:34:45;;;;;;;29.45;16.30;;;7.30;99.90;;;;;;4994796;28;20054;-80
2021/12/15 01:37:12;;;;;;;29.58;16.83;;;7.30;99.90;;;;;;4994846;28;20052;-82
2021/12/15 01:39:40;;;;;;;28.00;16.90;;;7.40;99.90;;;;;;5000630;28;20145;-81
2021/12/15 01:42:07;;;;;;;27.38;15.60;;;7.30;99.90;;;;;;4994379;28;20074;-81
2021/12/15 01:47:21;;;;;;;25.83;15.25;;;7.40;99.90;;;;;;4995085;28;20498;-81
2021/12/15 01:49:52;;;;;;;26.42;15.65;;;7.40;99.90;;;;;;5013872;28;20054;-81
2021/12/15 01:52:26;;;;;;;25.27;15.57;;;7.40;99.90;;;;;;4982925;28;20058;-83
2021/12/15 01:54:57;;;;;;;28.95;15.38;;;7.40;99.90;;;;;;4977939;28;20101;-81
2021/12/15 01:57:28;;;;;;;27.67;14.95;;;7.40;99.90;;;;;;4986921;28;20322;-81
2021/12/15 01:59:56;;;;;;;30.80;16.45;;;7.40;99.90;;;;;;4992302;28;20058;-82
2021/12/15 02:02:24;;;;;;;27.50;15.98;;;7.40;99.90;;;;;;4989964;28;20054;-82
2021/12/15 02:04:53;;;;;;;25.38;15.32;;;7.50;99.90;;;;;;5003484;28;20061;-82
2021/12/15 02:07:23;;;;;;;24.40;14.85;;;7.50;99.90;;;;;;4995832;28;20054;-82
2021/12/15 02:12:23;;;;;;;23.92;14.27;;;7.50;99.90;;;;;;4978863;28;20054;-82
2021/12/15 02:14:51;;;;;;;23.88;14.48;;;7.50;99.90;;;;;;4993747;28;20045;-82
2021/12/15 02:17:19;;;;;;;24.38;14.25;;;7.50;99.90;;;;;;5005584;28;20112;-81
2021/12/15 02:19:46;;;;;;;24.30;14.23;;;7.50;99.90;;;;;;5002465;28;20054;-81
2021/12/15 02:22:14;;;;;;;24.73;14.48;;;7.60;99.90;;;;;;5010782;28;20050;-81
2021/12/15 02:24:42;;;;;;;21.55;13.05;;;7.60;99.90;;;;;;5004456;28;20470;-80
2021/12/15 02:27:13;;;;;;;20.60;12.73;;;7.60;99.90;;;;;;4993974;28;20054;-82
2021/12/15 02:29:44;;;;;;;24.33;13.90;;;7.60;99.90;;;;;;4994334;28;20065;-81
2021/12/15 02:35:07;;;;;;;21.58;13.65;;;7.60;99.90;;;;;;4976578;28;20055;-80
2021/12/15 02:37:31;;;;;;;22.30;13.40;;;7.60;99.90;;;;;;4994516;28;20042;-81
2021/12/15 02:40:10;;;;;;;22.35;13.07;;;7.60;99.90;;;;;;4976730;28;20062;-81
2021/12/15 02:42:42;;;;;;;21.10;12.88;;;7.60;99.90;;;;;;4993900;28;20055;-82
2021/12/15 02:45:12;;;;;;;19.10;12.40;;;7.60;99.90;;;;;;4993906;28;20050;-82
2021/12/15 02:47:39;;;;;;;19.75;12.88;;;7.60;99.90;;;;;;4977194;28;20050;-81
2021/12/15 02:50:12;;;;;;;18.48;12.30;;;7.60;99.90;;;;;;5009811;28;20097;-78
2021/12/15 02:52:39;;;;;;;19.55;12.88;;;7.60;99.90;;;;;;5004051;28;20498;-80
2021/12/15 02:55:07;;;;;;;19.38;12.52;;;7.60;99.90;;;;;;4995728;28;20084;-82
2021/12/15 02:57:35;;;;;;;19.48;13.02;;;7.60;99.90;;;;;;4996651;28;20052;-80
2021/12/15 03:00:17;;;;;;;21.58;14.15;;;7.70;99.90;;;;;;5017437;28;20066;-81
2021/12/15 03:05:44;;;;;;;19.25;13.10;;;7.70;99.90;;;;;;5005408;28;20089;-80
2021/12/15 03:08:17;;;;;;;21.15;12.98;;;7.70;99.90;;;;;;4996828;28;20085;-81
2021/12/15 03:16:22;;;;;;;18.58;12.77;;;7.70;99.90;;;;;;4997450;28;20557;-82
2021/12/15 03:18:51;;;;;;;19.65;12.50;;;7.70;99.90;;;;;;4997460;28;20053;-80
2021/12/15 03:21:25;;;;;;;26.40;12.88;;;7.70;99.90;;;;;;4997352;28;20524;-81
2021/12/15 03:23:57;;;;;;;21.20;12.38;;;7.70;99.90;;;;;;4996646;28;20069;-82
2021/12/15 03:26:38;;;;;;;20.10;13.15;;;7.70;99.90;;;;;;4989235;28;20054;-82
2021/12/15 03:37:23;;;;;;;18.80;12.18;;;7.70;99.90;;;;;;5009525;28;20057;-81
2021/12/15 03:39:57;;;;;;;19.95;12.93;;;7.70;99.90;;;;;;4998221;28;20073;-82
2021/12/15 03:42:30;;;;;;;20.20;12.73;;;7.70;99.90;;;;;;4980383;28;20065;-80
2021/12/15 03:44:58;;;;;;;19.98;12.77;;;7.70;99.90;;;;;;4980725;28;20101;-81
2021/12/15 03:47:32;;;;;;;21.73;13.48;;;7.70;99.90;;;;;;4980589;28;20421;-81
2021/12/15 03:50:00;;;;;;;22.25;13.10;;;7.70;99.90;;;;;;4983253;28;20057;-81
2021/12/15 03:52:27;;;;;;;19.98;13.30;;;7.70;99.90;;;;;;5001335;28;20494;-83
2021/12/15 03:54:55;;;;;;;19.58;13.02;;;7.70;99.90;;;;;;5000233;28;20050;-82
2021/12/15 03:57:22;;;;;;;21.17;13.35;;;7.70;99.90;;;;;;5005363;28;20057;-82
2021/12/15 03:59:49;;;;;;;27.10;13.68;;;7.70;99.90;;;;;;4992072;28;20055;-81
2021/12/15 04:02:19;;;;;;;20.08;13.68;;;7.70;99.90;;;;;;4980443;28;20057;-82
2021/12/15 04:04:48;;;;;;;22.80;13.82;;;7.80;99.90;;;;;;4996007;28;20113;-81
2021/12/15 04:07:17;;;;;;;23.77;14.63;;;7.80;99.90;;;;;;4999538;28;20046;-82
2021/12/15 04:09:45;;;;;;;20.20;12.93;;;7.80;99.90;;;;;;4998310;28;20051;-83
2021/12/15 04:12:14;;;;;;;21.95;14.35;;;7.80;99.90;;;;;;4996753;28;20049;-82
2021/12/15 04:14:53;;;;;;;25.90;14.68;;;7.80;99.90;;;;;;4997971;28;20100;-83
2021/12/15 04:17:30;;;;;;;21.63;13.80;;;7.80;99.90;;;;;;5015569;28;20104;-82
2021/12/15 04:20:10;;;;;;;21.88;13.40;;;7.80;99.90;;;;;;5016142;28;20057;-82
2021/12/15 04:22:38;;;;;;;20.83;13.63;;;7.80;99.90;;;;;;5011105;28;20929;-82
2021/12/15 04:25:12;;;;;;;22.45;13.88;;;7.80;99.90;;;;;;4980503;28;20051;-81
2021/12/15 04:27:49;;;;;;;23.73;14.07;;;7.80;99.90;;;;;;4960798;28;20057;-81
2021/12/15 04:30:17;;;;;;;24.27;13.45;;;7.80;99.90;;;;;;4976138;28;20059;-83
2021/12/15 04:32:47;;;;;;;21.13;13.32;;;7.80;99.90;;;;;;4979050;28;20577;-81
2021/12/15 04:35:15;;;;;;;23.85;13.70;;;7.80;99.90;;;;;;4979433;28;20046;-83
2021/12/15 04:37:43;;;;;;;21.38;12.82;;;7.80;99.90;;;;;;4983414;28;20528;-81
2021/12/15 04:40:13;;;;;;;22.17;13.13;;;7.90;99.90;;;;;;5016089;28;20046;-81
2021/12/15 04:42:43;;;;;;;23.15;13.35;;;7.80;99.90;;;;;;5012571;28;20046;-82
2021/12/15 04:45:13;;;;;;;23.58;13.90;;;7.80;99.90;;;;;;5006444;28;20052;-82
2021/12/15 04:47:46;;;;;;;23.83;13.20;;;7.80;99.90;;;;;;5004003;28;20066;-81
2021/12/15 04:50:14;;;;;;;23.33;13.40;;;7.80;99.90;;;;;;4996066;28;20133;-80
2021/12/15 04:52:41;;;;;;;19.92;12.55;;;7.80;99.90;;;;;;5011929;28;20141;-80
2021/12/15 04:55:09;;;;;;;21.70;13.27;;;7.80;99.90;;;;;;5007979;28;20053;-82
2021/12/15 04:57:36;;;;;;;22.30;13.13;;;7.80;99.90;;;;;;4978693;28;20046;-80
2021/12/15 05:00:13;;;;;;;22.90;13.68;;;7.80;99.90;;;;;;5012870;28;20056;-81
2021/12/15 05:02:41;;;;;;;22.95;13.10;;;7.80;99.90;;;;;;4999375;28;20050;-81
2021/12/15 05:05:09;;;;;;;23.90;13.45;;;7.80;99.90;;;;;;5015037;28;20073;-80
2021/12/15 05:07:38;;;;;;;21.75;14.07;;;7.80;99.90;;;;;;5012568;28;20054;-81
2021/12/15 05:10:08;;;;;;;24.25;13.32;;;7.80;99.90;;;;;;4982742;28;20050;-81
2021/12/15 05:12:37;;;;;;;22.98;13.02;;;7.90;99.90;;;;;;5015046;28;20049;-82
2021/12/15 05:15:08;;;;;;;19.67;12.65;;;7.90;99.90;;;;;;5018535;28;20046;-82
2021/12/15 05:17:35;;;;;;;22.38;13.07;;;7.80;99.90;;;;;;5001756;28;20050;-81
2021/12/15 05:20:05;;;;;;;26.38;14.18;;;7.90;99.90;;;;;;4991163;28;20054;-82
2021/12/15 05:22:33;;;;;;;23.98;14.27;;;7.90;99.90;;;;;;4976714;28;20105;-81
2021/12/15 05:25:00;;;;;;;21.52;13.00;;;7.80;99.90;;;;;;4987630;28;20058;-82
2021/12/15 05:27:27;;;;;;;25.40;13.57;;;7.90;99.90;;;;;;4983835;28;20058;-81
2021/12/15 05:29:57;;;;;;;24.25;13.90;;;7.90;99.90;;;;;;4995028;28;20078;-81
2021/12/15 05:32:24;;;;;;;21.23;12.85;;;7.90;99.90;;;;;;4975122;28;20101;-81
2021/12/15 05:34:57;;;;;;;24.15;13.43;;;7.90;99.90;;;;;;4967176;28;20051;-80
2021/12/15 05:37:25;;;;;;;20.92;13.32;;;7.90;99.90;;;;;;4979040;28;20057;-81
2021/12/15 05:39:54;;;;;;;23.55;13.93;;;7.90;99.90;;;;;;4980429;28;20110;-82
2021/12/15 05:42:23;;;;;;;28.15;14.27;;;7.90;99.90;;;;;;4996741;28;20053;-81
2021/12/15 05:44:51;;;;;;;22.48;13.23;;;7.90;99.90;;;;;;4998167;28;20406;-82
2021/12/15 05:47:20;;;;;;;24.15;13.20;;;7.90;99.90;;;;;;4995831;28;20065;-82
2021/12/15 05:49:49;;;;;;;22.27;13.40;;;7.90;99.90;;;;;;4978531;28;20058;-81
2021/12/15 05:52:18;;;;;;;24.67;14.05;;;7.90;99.90;;;;;;4969913;28;20050;-81
2021/12/15 05:54:46;;;;;;;22.98;13.55;;;7.90;99.90;;;;;;4978174;28;20053;-81
2021/12/15 05:57:13;;;;;;;23.27;13.48;;;7.90;99.90;;;;;;4979022;28;20054;-80
2021/12/15 05:59:40;;;;;;;26.17;14.07;;;7.90;99.90;;;;;;5011258;28;20049;-81
2021/12/15 06:02:08;;;;;;;24.52;14.50;;;7.80;99.90;;;;;;5001361;28;20438;-82
2021/12/15 06:04:36;;;;;;;27.85;14.43;;;7.90;99.90;;;;;;5008790;28;20065;-81
2021/12/15 06:07:04;;;;;;;25.42;13.82;;;7.80;99.90;;;;;;4997936;28;20461;-82
2021/12/15 06:09:32;;;;;;;28.33;14.60;;;7.80;99.90;;;;;;5006864;28;20042;-83
2021/12/15 06:12:00;;;;;;;24.00;14.00;;;7.90;99.90;;;;;;5003563;28;20510;-81
2021/12/15 06:14:28;;;;;;;27.13;14.00;;;7.80;99.90;;;;;;4995260;28;20073;-81
2021/12/15 06:16:59;;;;;;;24.45;13.55;;;7.90;99.90;;;;;;4978494;28;20050;-81
2021/12/15 06:19:27;;;;;;;27.77;14.85;;;7.90;99.90;;;;;;4992373;28;20047;-80
2021/12/15 06:21:54;;;;;;;26.70;14.25;;;7.90;99.90;;;;;;5002277;28;20062;-82
2021/12/15 06:24:22;;;;;;;24.55;13.65;;;7.90;99.90;;;;;;4997481;28;20824;-82
2021/12/15 06:26:50;;;;;;;26.00;14.27;;;7.90;99.90;;;;;;4970362;28;20522;-81
2021/12/15 06:29:17;;;;;;;28.27;15.65;;;7.90;99.90;;;;;;4991153;28;20054;-82
2021/12/15 06:31:44;;;;;;;25.98;14.05;;;7.90;99.90;;;;;;4981603;28;20418;-81
2021/12/15 06:34:11;;;;;;;26.33;14.27;;;7.90;99.90;;;;;;4998025;28;20062;-81
2021/12/15 06:36:38;;;;;;;25.58;14.27;;;7.90;99.90;;;;;;4996949;28;20051;-81
2021/12/15 06:39:06;;;;;;;30.35;14.35;;;7.90;99.90;;;;;;5017741;28;20077;-80
2021/12/15 06:41:33;;;;;;;26.83;14.15;;;7.80;99.90;;;;;;5017610;28;20057;-80
2021/12/15 06:44:00;;;;;;;27.05;13.52;;;7.90;99.90;;;;;;5009560;28;20461;-83
2021/12/15 07:00:04;;;;;;;22.25;13.35;;;7.90;99.90;;;;;;5018915;28;20112;-81
2021/12/15 07:02:32;;;;;;;20.80;12.80;;;7.90;99.90;;;;;;5003921;28;20125;-81
2021/12/15 07:04:59;;;;;;;22.77;13.50;;;7.80;99.90;;;;;;4962235;28;20047;-81
2021/12/15 07:07:27;;;;;;;23.08;13.55;;;7.80;99.90;;;;;;4963095;28;20533;-81
2021/12/15 07:09:54;;;;;;;23.65;13.25;;;7.90;99.90;;;;;;4989072;28;20050;-81
2021/12/15 07:12:22;;;;;;;21.20;13.38;;;7.80;99.90;;;;;;5017575;28;20100;-80
2021/12/15 07:14:49;;;;;;;23.25;13.13;;;7.80;99.90;;;;;;4998466;28;20050;-81
2021/12/15 07:17:21;;;;;;;22.52;13.45;;;7.90;99.90;;;;;;4977836;28;20105;-80
2021/12/15 07:25:02;;;;;;;23.30;14.25;;;7.90;99.90;;;;;;5017708;28;20045;-82
2021/12/15 07:27:29;;;;;;;22.52;13.40;;;7.90;99.90;;;;;;5007833;28;20050;-80
2021/12/15 07:29:56;;;;;;;28.52;14.57;;;7.90;99.90;;;;;;4996660;28;20414;-80
2021/12/15 07:32:24;;;;;;;23.48;12.82;;;7.90;99.90;;;;;;4992766;28;20119;-82
2021/12/15 07:34:51;;;;;;;21.35;13.40;;;7.80;99.90;;;;;;4946277;29;20055;-80
2021/12/15 07:37:18;;;;;;;24.10;14.25;;;7.90;99.90;;;;;;4969254;28;20058;-82
2021/12/15 07:39:54;;;;;;;25.35;14.00;;;7.90;99.90;;;;;;4948722;29;20051;-82
2021/12/15 07:42:31;;;;;;;23.20;14.13;;;7.90;99.90;;;;;;4941728;28;20051;-80
2021/12/15 07:44:58;;;;;;;23.27;14.57;;;7.90;99.90;;;;;;4976380;28;20058;-82
2021/12/15 07:47:26;;;;;;;21.98;13.18;;;7.90;99.90;;;;;;4961537;28;20478;-82
2021/12/15 07:49:53;;;;;;;21.48;13.40;;;7.90;99.90;;;;;;4987768;28;20054;-81
2021/12/15 07:52:21;;;;;;;21.42;12.55;;;7.90;99.90;;;;;;4996567;28;20133;-80
2021/12/15 07:54:48;;;;;;;20.23;12.77;;;7.90;99.90;;;;;;4994281;28;21181;-80
2021/12/15 07:57:18;;;;;;;19.25;12.48;;;7.90;99.90;;;;;;4991494;28;20117;-80
2021/12/15 07:59:45;;;;;;;19.90;12.82;;;7.90;99.90;;;;;;4982139;28;20407;-80
2021/12/15 08:02:12;;;;;;;17.52;11.60;;;7.90;99.90;;;;;;4976389;28;20054;-81
2021/12/15 08:04:40;;;;;;;15.38;11.20;;;8.00;99.90;;;;;;4971521;28;20069;-81
2021/12/15 08:07:07;;;;;;;17.05;9.95;;;8.00;99.90;;;;;;4995531;28;20105;-80
2021/12/15 08:09:34;;;;;;;18.25;9.63;;;8.00;99.90;;;;;;4995104;28;20054;-80
2021/12/15 08:12:02;;;;;;;14.25;9.55;;;8.00;99.90;;;;;;4995360;28;20054;-80
2021/12/15 08:14:29;;;;;;;15.77;9.90;;;8.00;99.90;;;;;;4985537;28;20046;-80
2021/12/15 08:16:56;;;;;;;12.45;8.52;;;8.00;99.90;;;;;;4994920;28;20069;-81
2021/12/15 08:19:24;;;;;;;11.40;8.00;;;8.10;99.90;;;;;;4978556;28;20047;-81
2021/12/15 08:21:52;;;;;;;11.50;7.97;;;8.10;99.90;;;;;;4995655;28;20117;-81
2021/12/15 08:24:19;;;;;;;11.05;7.75;;;8.10;99.90;;;;;;4990848;28;20494;-82
2021/12/15 08:26:46;;;;;;;10.45;7.70;;;8.20;99.90;;;;;;4984984;28;20081;-80
2021/12/15 08:29:14;;;;;;;9.88;6.88;;;8.20;99.90;;;;;;4979142;28;20055;-81
2021/12/15 08:31:41;;;;;;;10.77;7.13;;;8.20;99.90;;;;;;4978003;28;20051;-79
2021/12/15 08:34:09;;;;;;;13.57;6.65;;;8.20;99.90;;;;;;4976543;28;20059;-80
2021/12/15 08:36:38;;;;;;;7.93;6.40;;;8.20;99.90;;;;;;5013968;28;20058;-80
2021/12/15 08:39:07;;;;;;;9.02;6.47;;;8.30;99.90;;;;;;4999991;28;20050;-80
2021/12/15 08:41:35;;;;;;;10.55;6.63;;;8.30;99.90;;;;;;5010542;28;20104;-80
2021/12/15 08:44:06;;;;;;;9.30;6.15;;;8.30;99.90;;;;;;5013767;28;20041;-81
2021/12/15 08:46:39;;;;;;;9.65;5.78;;;8.40;99.90;;;;;;5014886;28;20469;-82
2021/12/15 08:49:09;;;;;;;7.65;5.75;;;8.40;99.90;;;;;;4996324;28;20057;-80
2021/12/15 08:51:36;;;;;;;9.45;5.88;;;8.40;99.90;;;;;;5021058;28;20095;-80
2021/12/15 08:54:06;;;;;;;8.32;5.85;;;8.40;99.90;;;;;;5016313;28;20050;-81
2021/12/15 08:56:34;;;;;;;13.43;6.95;;;8.40;99.90;;;;;;5015513;28;20053;-81
2021/12/15 08:59:02;;;;;;;59.60;29.55;;;8.40;99.90;;;;;;5014705;28;20148;-79
2021/12/15 09:01:28;;;;;;;16.75;9.35;;;8.50;99.90;;;;;;5001995;28;20058;-82
2021/12/15 09:03:56;;;;;;;12.55;7.03;;;8.50;99.90;;;;;;5015569;28;21105;-79
2021/12/15 09:06:23;;;;;;;9.57;6.68;;;8.50;99.90;;;;;;5013732;28;20568;-80
2021/12/15 09:08:51;;;;;;;38.58;22.13;;;8.50;99.90;;;;;;5015376;28;20461;-80
2021/12/15 09:11:21;;;;;;;8.55;6.35;;;8.50;99.90;;;;;;5003000;28;20049;-81
2021/12/15 09:13:52;;;;;;;11.65;5.85;;;8.60;99.90;;;;;;4999605;28;20049;-81
2021/12/15 09:16:22;;;;;;;8.90;6.45;;;8.60;99.90;;;;;;5018574;28;20056;-80
2021/12/15 09:18:50;;;;;;;10.88;6.53;;;8.60;99.90;;;;;;4997978;28;20332;-84
2021/12/15 09:21:20;;;;;;;8.75;6.30;;;8.60;99.90;;;;;;5015519;28;20665;-80
2021/12/15 09:23:47;;;;;;;11.00;6.68;;;8.60;99.90;;;;;;5011752;28;20058;-81
2021/12/15 09:26:15;;;;;;;11.10;6.43;;;8.70;99.90;;;;;;5000345;28;20052;-81
2021/12/15 09:28:42;;;;;;;11.90;6.68;;;8.70;99.90;;;;;;5003714;28;20073;-82
2021/12/15 09:31:10;;;;;;;11.52;7.38;;;8.70;99.90;;;;;;5015557;28;20054;-80
2021/12/15 09:33:39;;;;;;;8.43;6.15;;;8.70;99.90;;;;;;5016216;28;20298;-81
2021/12/15 09:36:06;;;;;;;11.25;7.32;;;8.70;99.90;;;;;;4996381;28;20054;-83
2021/12/15 09:38:34;;;;;;;12.98;6.25;;;8.80;99.90;;;;;;5016049;28;20054;-81
2021/12/15 09:41:09;;;;;;;11.25;7.03;;;8.80;99.90;;;;;;5012435;28;20080;-83
2021/12/15 09:43:37;;;;;;;13.48;6.60;;;8.80;99.90;;;;;;5000756;28;20064;-83
2021/12/15 10:10:44;;;;;;;11.30;7.63;;;9.00;99.90;;;;;;5037331;28;20077;-80
2021/12/15 10:19:26;;;;;;;13.75;8.27;;;9.20;99.90;;;;;;5003937;28;20058;-81
2021/12/15 10:22:09;;;;;;;17.42;10.30;;;9.10;99.90;;;;;;5001326;28;20462;-80
2021/12/15 10:24:58;;;;;;;15.13;8.73;;;9.00;99.90;;;;;;5002006;28;20104;-80
2021/12/15 10:27:31;;;;;;;20.60;10.82;;;9.10;99.90;;;;;;5003077;28;20112;-81
2021/12/15 10:30:22;;;;;;;17.70;10.02;;;9.10;99.90;;;;;;5003615;28;20517;-80
2021/12/15 10:32:55;;;;;;;21.98;10.88;;;9.00;99.90;;;;;;5024359;28;20104;-80
2021/12/15 10:35:35;;;;;;;21.15;11.77;;;9.00;99.90;;;;;;4973870;28;20112;-80
2021/12/15 10:38:18;;;;;;;22.85;12.15;;;9.00;99.90;;;;;;4978345;28;20055;-81
2021/12/15 10:41:03;;;;;;;22.90;12.35;;;9.00;99.90;;;;;;4960781;29;20106;-79
2021/12/15 10:43:42;;;;;;;20.60;10.77;;;9.10;99.90;;;;;;4960169;29;20063;-81
2021/12/15 10:46:49;;;;;;;16.02;9.43;;;9.10;99.90;;;;;;4938344;29;20071;-82
2021/12/15 10:49:24;;;;;;;14.40;9.27;;;9.20;99.90;;;;;;4944690;29;20093;-81
2021/12/15 10:51:59;;;;;;;14.57;9.10;;;9.20;99.90;;;;;;4960187;29;20051;-80
2021/12/15 10:54:32;;;;;;;13.45;8.82;;;9.30;99.90;;;;;;4979160;28;20070;-80
2021/12/15 10:57:01;;;;;;;16.33;8.98;;;9.40;99.90;;;;;;4994290;28;20058;-82
2021/12/15 10:59:38;;;;;;;16.20;10.00;;;9.40;99.90;;;;;;5016883;28;20054;-81
2021/12/15 11:02:28;;;;;;;18.48;10.25;;;9.50;99.90;;;;;;5018248;28;20034;-83
2021/12/15 11:05:01;;;;;;;18.15;10.15;;;9.60;99.90;;;;;;4998770;28;20035;-84
2021/12/15 11:07:41;;;;;;;17.33;10.68;;;9.60;99.90;;;;;;4982532;28;20070;-87
2021/12/15 11:10:20;;;;;;;21.95;11.15;;;9.50;99.90;;;;;;4982700;28;20063;-83
2021/12/15 11:12:50;;;;;;;20.65;10.80;;;9.40;99.90;;;;;;4994114;28;20035;-83
2021/12/15 11:15:41;;;;;;;18.73;11.52;;;9.50;99.90;;;;;;4985388;28;20054;-85
2021/12/15 11:18:18;;;;;;;21.50;11.60;;;9.50;99.90;;;;;;4978361;28;20038;-85
2021/12/15 11:20:54;;;;;;;19.15;11.07;;;9.40;99.90;;;;;;4966763;28;20034;-86
2021/12/15 11:23:24;;;;;;;17.38;11.00;;;9.50;99.90;;;;;;4992454;28;20043;-84
2021/12/15 11:25:56;;;;;;;16.38;11.45;;;9.50;99.90;;;;;;4985471;28;20062;-83
2021/12/15 11:28:30;;;;;;;19.15;11.32;;;9.60;99.90;;;;;;5001979;28;20039;-85
2021/12/15 11:31:13;;;;;;;18.13;11.52;;;9.70;99.90;;;;;;5001497;28;20065;-85
2021/12/15 11:33:48;;;;;;;18.92;11.15;;;9.70;99.90;;;;;;5007233;28;20040;-83
2021/12/15 11:36:21;;;;;;;17.70;11.68;;;9.70;99.90;;;;;;5020085;28;20026;-81
2021/12/15 11:38:56;;;;;;;16.83;11.07;;;9.80;99.90;;;;;;5019627;28;20041;-83
2021/12/15 11:41:52;;;;;;;25.60;14.55;;;9.80;99.90;;;;;;5004029;28;20041;-84
2021/12/15 11:44:22;;;;;;;21.08;13.00;;;9.80;99.90;;;;;;5016963;28;20236;-81
2021/12/15 11:47:01;;;;;;;21.80;13.40;;;9.80;99.90;;;;;;5005665;28;20215;-80
2021/12/15 11:49:34;;;;;;;18.63;11.63;;;9.70;99.90;;;;;;5002923;28;20050;-82
2021/12/15 11:52:06;;;;;;;20.73;11.73;;;9.80;99.90;;;;;;5018774;28;20034;-83
2021/12/15 11:54:48;;;;;;;19.23;11.25;;;9.80;99.90;;;;;;5018266;28;20053;-82
2021/12/15 11:57:24;;;;;;;18.10;11.57;;;9.90;99.90;;;;;;4999336;28;20057;-80
2021/12/15 11:59:55;;;;;;;17.98;11.77;;;10.00;99.90;;;;;;4991141;28;20054;-86
2021/12/15 12:02:33;;;;;;;20.73;13.02;;;10.00;99.90;;;;;;5019603;28;20022;-82
2021/12/15 12:05:05;;;;;;;24.25;13.02;;;9.90;99.90;;;;;;5002221;28;20038;-83
2021/12/15 12:07:41;;;;;;;24.13;14.43;;;10.00;99.90;;;;;;5018850;28;20043;-83
2021/12/15 12:10:42;;;;;;;22.07;12.37;;;10.10;99.90;;;;;;5045002;28;20066;-85
2021/12/15 12:13:15;;;;;;;22.73;13.45;;;9.90;99.90;;;;;;5002144;28;20430;-81
2021/12/15 12:15:45;;;;;;;20.85;12.98;;;9.90;99.90;;;;;;5016547;28;20033;-86
2021/12/15 12:18:21;;;;;;;19.13;12.65;;;9.90;99.90;;;;;;5021672;28;20046;-84
2021/12/15 12:21:02;;;;;;;21.90;13.23;;;10.00;99.90;;;;;;5036509;28;20041;-87
2021/12/15 12:23:32;;;;;;;22.73;13.30;;;10.10;99.90;;;;;;5033104;28;20060;-81
2021/12/15 12:26:06;;;;;;;23.48;13.68;;;10.10;99.90;;;;;;5033445;28;20134;-81
2021/12/15 12:28:38;;;;;;;22.17;14.07;;;10.10;99.90;;;;;;4983790;28;20031;-84
2021/12/15 12:31:22;;;;;;;19.33;12.65;;;10.10;99.90;;;;;;5030570;28;20050;-82
2021/12/15 12:33:49;;;;;;;20.90;12.73;;;10.10;99.90;;;;;;4990227;28;20089;-84
2021/12/15 12:36:20;;;;;;;20.60;12.77;;;10.20;99.90;;;;;;5012952;28;20044;-85
2021/12/15 12:38:52;;;;;;;23.48;12.90;;;10.30;99.90;;;;;;4999783;28;20054;-84
2021/12/15 12:41:24;;;;;;;20.50;12.48;;;10.40;99.90;;;;;;5017955;28;20034;-83
2021/12/15 12:43:55;;;;;;;23.73;13.63;;;10.50;99.90;;;;;;5021449;28;20049;-83
2021/12/15 12:49:36;;;;;;;20.73;13.25;;;10.50;99.90;;;;;;5023744;28;20041;-84
2021/12/15 13:00:42;;;;;;;22.85;13.98;;;10.40;99.90;;;;;;5018119;28;20030;-84
2021/12/15 13:03:18;;;;;;;21.77;13.57;;;10.50;99.90;;;;;;5014764;28;20046;-85
2021/12/15 13:05:52;;;;;;;22.20;12.82;;;10.50;99.90;;;;;;5026366;28;20034;-84
2021/12/15 13:08:34;;;;;;;23.92;14.13;;;10.50;99.90;;;;;;4997812;28;20046;-83
2021/12/15 13:11:05;;;;;;;23.27;13.63;;;10.50;99.90;;;;;;4991917;28;20034;-83
2021/12/15 13:13:54;;;;;;;27.55;14.60;;;10.50;99.90;;;;;;4998841;28;20045;-83
2021/12/15 13:16:42;;;;;;;22.73;14.63;;;10.60;99.90;;;;;;4995884;28;20034;-84
2021/12/15 13:19:15;;;;;;;21.52;13.18;;;10.60;99.90;;;;;;5011336;28;20098;-82
2021/12/15 13:21:58;;;;;;;23.17;14.75;;;10.70;99.90;;;;;;5008718;23;20565;-72
2021/12/15 13:30:55;;;;;;;27.52;15.27;;;10.50;99.90;;;;;;4980395;28;20054;-73
2021/12/15 13:33:32;;;;;;;24.55;15.15;;;10.50;99.90;;;;;;4961223;28;20046;-73
2021/12/15 13:36:22;;;;;;;26.55;16.08;;;10.50;99.90;;;;;;4992335;28;20514;-72
2021/12/15 13:38:54;;;;;;;24.55;14.70;;;10.40;99.90;;;;;;4964101;28;20466;-74
2021/12/15 13:41:26;;;;;;;24.23;14.75;;;10.30;99.90;;;;;;4970282;28;20058;-73
2021/12/15 13:44:16;;;;;;;24.05;15.02;;;10.40;99.90;;;;;;4975166;28;20058;-72
2021/12/15 13:47:01;;;;;;;26.40;14.65;;;10.30;99.90;;;;;;4987998;28;20089;-73
2021/12/15 13:49:47;;;;;;;21.70;12.75;;;10.30;99.90;;;;;;4976473;28;20102;-72
2021/12/15 13:52:29;;;;;;;22.40;13.30;;;10.40;99.90;;;;;;4971509;28;20050;-72
2021/12/15 13:55:12;;;;;;;19.98;13.02;;;10.50;99.90;;;;;;4979103;28;20463;-73
2021/12/15 13:57:52;;;;;;;23.15;15.13;;;10.60;99.90;;;;;;4954572;28;20106;-73
2021/12/15 14:00:47;;;;;;;25.67;14.27;;;10.60;99.90;;;;;;4955516;28;20065;-73
2021/12/15 14:03:26;;;;;;;20.85;13.70;;;10.60;99.90;;;;;;4964492;28;20434;-73
2021/12/15 14:06:04;;;;;;;20.05;11.98;;;10.70;99.90;;;;;;4954512;28;20079;-72
2021/12/15 14:08:44;;;;;;;15.75;10.68;;;10.70;99.90;;;;;;4970660;28;20105;-73
2021/12/15 14:11:21;;;;;;;17.48;11.10;;;10.60;99.90;;;;;;4972661;28;20055;-73
2021/12/15 14:13:53;;;;;;;15.68;10.02;;;10.70;99.90;;;;;;4971467;28;20130;-72
2021/12/15 14:16:39;;;;;;;17.17;9.80;;;10.70;99.90;;;;;;4972127;28;20102;-73
2021/12/15 14:19:11;;;;;;;16.50;9.38;;;10.70;99.90;;;;;;4981216;28;20401;-73
2021/12/15 14:21:38;;;;;;;18.90;8.38;;;10.60;99.90;;;;;;4973384;28;20090;-72
2021/12/15 14:24:07;;;;;;;11.32;7.93;;;10.60;99.90;;;;;;4982594;28;20085;-72
2021/12/15 14:26:41;;;;;;;13.07;8.43;;;10.60;99.90;;;;;;4976849;28;20058;-72
2021/12/15 14:29:17;;;;;;;12.85;7.88;;;10.60;99.90;;;;;;4954316;28;20125;-73
2021/12/15 14:31:46;;;;;;;12.25;8.10;;;10.60;99.90;;;;;;4969922;28;20050;-73
2021/12/15 14:34:27;;;;;;;14.85;8.05;;;10.60;99.90;;;;;;4970490;28;20074;-73
2021/12/15 14:37:01;;;;;;;16.05;10.15;;;10.60;99.90;;;;;;4967035;28;20058;-73
2021/12/15 14:39:33;;;;;;;21.33;12.82;;;10.60;99.90;;;;;;4973379;28;20102;-73